createdAt,value
2019-04-29T00:01:56.452Z,23.37
2019-04-29T00:04:25.438Z,36.53
2019-04-29T00:06:54.310Z,37.70
2019-04-29T00:09:23.154Z,35.83
2019-04-29T00:11:52.056Z,33.70
2019-04-29T00:14:20.940Z,33.53
2019-04-29T00:16:51.480Z,32.00
2019-04-29T00:19:25.106Z,32.70
2019-04-29T00:21:54.052Z,32.00
2019-04-29T00:24:22.890Z,28.80
2019-04-29T00:26:51.795Z,35.00
2019-04-29T00:29:20.672Z,34.63
2019-04-29T00:31:49.489Z,37.10
2019-04-29T00:34:18.408Z,35.77
2019-04-29T00:36:51.634Z,40.77
2019-04-29T00:39:27.826Z,36.10
2019-04-29T00:41:58.235Z,35.07
2019-04-29T00:44:27.199Z,35.20
2019-04-29T00:46:56.455Z,37.60
2019-04-29T00:49:25.315Z,31.07
2019-04-29T00:51:55.054Z,27.50
2019-04-29T00:54:25.582Z,27.73
2019-04-29T00:56:54.424Z,28.27
2019-04-29T00:59:23.349Z,34.40
2019-04-29T01:01:52.327Z,30.23
2019-04-29T01:04:21.122Z,31.33
2019-04-29T01:06:50.245Z,36.77
2019-04-29T01:09:20.702Z,51.60
2019-04-29T01:11:49.545Z,40.20
2019-04-29T01:14:18.389Z,26.97
2019-04-29T01:16:47.275Z,29.10
2019-04-29T01:19:16.142Z,27.43
2019-04-29T01:21:44.969Z,26.53
2019-04-29T01:24:13.899Z,24.20
2019-04-29T01:26:47.020Z,25.53
2019-04-29T01:29:17.486Z,26.17
2019-04-29T01:31:46.345Z,24.23
2019-04-29T01:34:22.735Z,24.80
2019-04-29T01:36:51.582Z,26.37
2019-04-29T01:39:20.455Z,31.20
2019-04-29T01:41:50.966Z,29.33
2019-04-29T01:44:21.386Z,29.10
2019-04-29T01:46:50.245Z,27.77
2019-04-29T01:49:19.134Z,28.83
2019-04-29T01:51:47.999Z,25.90
2019-04-29T01:54:16.861Z,33.13
2019-04-29T01:56:45.773Z,42.43
2019-04-29T01:59:14.620Z,39.47
2019-04-29T02:01:43.479Z,34.00
2019-04-29T02:04:12.403Z,30.67
2019-04-29T02:06:41.230Z,35.40
2019-04-29T02:09:11.650Z,29.33
2019-04-29T02:11:40.933Z,32.03
2019-04-29T02:14:09.789Z,29.83
2019-04-29T02:16:38.645Z,31.13
2019-04-29T02:19:07.551Z,27.60
2019-04-29T02:21:36.394Z,26.63
2019-04-29T02:24:16.032Z,28.17
2019-04-29T02:26:44.876Z,26.40
2019-04-29T02:29:13.733Z,29.03
2019-04-29T02:31:43.929Z,25.87
2019-04-29T02:34:12.781Z,27.67
2019-04-29T02:36:41.650Z,26.17
2019-04-29T02:39:25.329Z,27.00
2019-04-29T02:41:55.759Z,26.80
2019-04-29T02:44:24.611Z,29.60
2019-04-29T02:46:53.593Z,32.13
2019-04-29T02:49:22.432Z,33.60
2019-04-29T02:51:54.235Z,35.87
2019-04-29T02:54:25.592Z,33.83
2019-04-29T02:56:58.705Z,30.83
2019-04-29T02:59:35.471Z,30.53
2019-04-29T03:02:06.486Z,35.17
2019-04-29T03:04:52.304Z,37.80
2019-04-29T03:07:21.957Z,34.23
2019-04-29T03:09:50.877Z,37.33
2019-04-29T03:12:19.931Z,38.80
2019-04-29T03:14:48.786Z,38.60
2019-04-29T03:17:18.923Z,41.73
2019-04-29T03:20:06.406Z,38.63
2019-04-29T03:22:35.874Z,43.07
2019-04-29T03:25:05.420Z,35.57
2019-04-29T03:27:34.359Z,38.77
2019-04-29T03:30:03.203Z,34.53
2019-04-29T03:32:32.237Z,34.00
2019-04-29T03:35:01.157Z,37.27
2019-04-29T03:37:29.998Z,28.10
2019-04-29T03:39:58.848Z,34.57
2019-04-29T03:42:27.742Z,34.50
2019-04-29T03:44:56.611Z,33.77
2019-04-29T03:47:25.451Z,29.53
2019-04-29T03:49:54.384Z,26.37
2019-04-29T03:52:23.209Z,26.40
2019-04-29T03:54:52.085Z,26.50
2019-04-29T03:57:20.981Z,21.00
2019-04-29T03:59:49.841Z,19.33
2019-04-29T04:02:20.252Z,17.47
2019-04-29T04:05:07.458Z,19.33
2019-04-29T04:07:49.894Z,21.47
2019-04-29T04:10:18.789Z,22.20
2019-04-29T04:12:47.654Z,22.27
2019-04-29T04:15:16.510Z,25.40
2019-04-29T04:17:49.730Z,25.53
2019-04-29T04:20:18.571Z,32.40
2019-04-29T04:22:48.152Z,24.70
2019-04-29T04:25:19.790Z,30.73
2019-04-29T04:27:48.864Z,32.80
2019-04-29T04:30:19.600Z,27.33
2019-04-29T04:32:48.522Z,35.03
2019-04-29T04:35:17.360Z,27.13
2019-04-29T04:37:46.349Z,26.23
2019-04-29T04:40:24.977Z,30.20
2019-04-29T04:42:53.834Z,32.20
2019-04-29T04:45:22.690Z,33.57
2019-04-29T04:47:51.595Z,35.70
2019-04-29T04:50:20.546Z,33.23
2019-04-29T04:52:49.386Z,35.77
2019-04-29T04:55:19.846Z,34.47
2019-04-29T04:57:49.559Z,33.23
2019-04-29T05:00:23.612Z,28.87
2019-04-29T05:02:52.570Z,29.90
2019-04-29T05:05:21.421Z,33.43
2019-04-29T05:07:50.328Z,35.27
2019-04-29T05:10:19.174Z,35.53
2019-04-29T05:12:48.013Z,34.37
2019-04-29T05:15:17.005Z,33.50
2019-04-29T05:17:45.859Z,32.90
2019-04-29T05:20:14.995Z,30.10
2019-04-29T05:22:45.502Z,28.57
2019-04-29T05:25:14.470Z,29.60
2019-04-29T05:27:43.316Z,30.93
2019-04-29T05:30:12.314Z,26.47
2019-04-29T05:32:41.181Z,22.70
2019-04-29T05:35:11.811Z,22.07
2019-04-29T05:37:42.279Z,21.33
2019-04-29T05:40:11.123Z,22.27
2019-04-29T05:42:39.984Z,21.73
2019-04-29T05:45:10.886Z,18.17
2019-04-29T05:47:52.495Z,19.63
2019-04-29T05:50:38.721Z,20.47
2019-04-29T05:53:11.620Z,26.93
2019-04-29T05:55:39.656Z,31.03
2019-04-29T05:58:11.842Z,38.43
2019-04-29T06:00:58.916Z,31.83
2019-04-29T06:03:39.828Z,25.27
2019-04-29T06:06:13.707Z,18.20
2019-04-29T06:08:43.707Z,15.93
2019-04-29T06:11:30.240Z,15.37
2019-04-29T06:13:58.847Z,18.47
2019-04-29T06:16:27.711Z,16.30
2019-04-29T06:19:00.221Z,20.80
2019-04-29T06:21:27.134Z,17.50
2019-04-29T06:23:59.229Z,21.03
2019-04-29T06:26:26.488Z,17.70
2019-04-29T06:28:55.767Z,20.27
2019-04-29T06:31:24.623Z,16.00
2019-04-29T06:33:54.946Z,17.27
2019-04-29T06:36:23.903Z,13.93
2019-04-29T06:38:52.768Z,19.97
2019-04-29T06:41:21.637Z,15.90
2019-04-29T06:43:53.119Z,13.60
2019-04-29T06:46:21.071Z,16.13
2019-04-29T06:48:49.926Z,13.20
2019-04-29T06:51:18.815Z,17.93
2019-04-29T06:53:47.902Z,17.77
2019-04-29T06:56:16.823Z,15.60
2019-04-29T06:58:48.857Z,14.33
2019-04-29T07:01:16.239Z,11.50
2019-04-29T07:03:45.094Z,13.77
2019-04-29T07:06:16.838Z,15.33
2019-04-29T07:08:45.716Z,15.20
2019-04-29T07:11:14.567Z,17.37
2019-04-29T07:13:46.593Z,20.60
2019-04-29T07:16:17.016Z,20.20
2019-04-29T07:18:49.373Z,18.73
2019-04-29T07:21:16.153Z,21.03
2019-04-29T07:23:45.011Z,21.40
2019-04-29T07:26:13.859Z,19.13
2019-04-29T07:28:42.751Z,20.23
2019-04-29T07:31:11.600Z,18.57
2019-04-29T07:33:40.439Z,19.43
2019-04-29T07:36:11.316Z,15.20
2019-04-29T07:38:41.551Z,15.53
2019-04-29T07:41:14.366Z,18.13
2019-04-29T07:43:43.119Z,17.97
2019-04-29T07:46:16.477Z,20.27
2019-04-29T07:48:45.584Z,21.83
2019-04-29T07:51:14.452Z,19.47
2019-04-29T07:53:45.405Z,18.90
2019-04-29T07:56:13.860Z,24.93
2019-04-29T07:58:42.741Z,17.83
2019-04-29T08:01:11.604Z,16.07
2019-04-29T08:03:40.531Z,15.73
2019-04-29T08:06:09.785Z,16.83
2019-04-29T08:08:38.732Z,16.83
2019-04-29T08:11:07.630Z,16.27
2019-04-29T08:13:37.964Z,15.90
2019-04-29T08:16:06.813Z,16.10
2019-04-29T08:18:35.732Z,17.85
2019-04-29T08:21:04.607Z,17.00
2019-04-29T08:23:40.892Z,14.63
2019-04-29T08:26:04.566Z,17.50
2019-04-29T08:28:33.590Z,16.00
2019-04-29T08:31:02.460Z,16.20
2019-04-29T08:33:31.369Z,17.27
2019-04-29T08:36:00.212Z,16.97
2019-04-29T08:38:29.067Z,16.97
2019-04-29T08:40:57.972Z,15.50
2019-04-29T08:43:43.272Z,16.10
2019-04-29T08:46:13.753Z,14.83
2019-04-29T08:48:45.632Z,14.90
2019-04-29T08:51:13.107Z,14.77
2019-04-29T08:53:42.021Z,16.13
2019-04-29T08:56:12.116Z,15.37
2019-04-29T08:58:44.204Z,14.77
2019-04-29T09:01:11.709Z,17.13
2019-04-29T09:03:41.114Z,15.50
2019-04-29T09:06:10.211Z,17.30
2019-04-29T09:08:53.523Z,14.33
2019-04-29T09:11:13.002Z,16.37
2019-04-29T09:13:40.102Z,13.00
2019-04-29T09:16:09.163Z,18.83
2019-04-29T09:18:38.007Z,15.63
2019-04-29T09:21:06.910Z,14.47
2019-04-29T09:23:37.331Z,15.60
2019-04-29T09:26:16.786Z,14.07
2019-04-29T09:28:45.645Z,13.30
2019-04-29T09:31:14.505Z,15.20
2019-04-29T09:33:44.087Z,14.43
2019-04-29T09:36:15.111Z,15.07
2019-04-29T09:38:44.145Z,14.13
2019-04-29T09:41:20.270Z,15.27
2019-04-29T09:44:08.742Z,15.80
2019-04-29T09:46:37.644Z,16.77
2019-04-29T09:49:06.513Z,17.20
2019-04-29T09:51:35.370Z,21.27
2019-04-29T09:54:04.268Z,18.97
2019-04-29T09:56:34.825Z,17.00
2019-04-29T09:59:23.870Z,18.57
2019-04-29T10:01:55.365Z,17.07
2019-04-29T10:04:36.380Z,15.40
2019-04-29T10:07:07.134Z,15.47
2019-04-29T10:09:35.975Z,17.40
2019-04-29T10:12:05.174Z,16.80
2019-04-29T10:14:34.031Z,16.60
2019-04-29T10:17:11.218Z,19.63
2019-04-29T10:19:42.348Z,18.00
2019-04-29T10:22:11.212Z,20.60
2019-04-29T10:24:40.051Z,18.90
2019-04-29T10:27:09.091Z,20.57
2019-04-29T10:29:38.542Z,20.03
2019-04-29T10:32:09.219Z,20.73
2019-04-29T10:34:38.119Z,20.20
2019-04-29T10:37:08.059Z,19.57
2019-04-29T10:39:44.788Z,18.27
2019-04-29T10:42:22.986Z,21.93
2019-04-29T10:45:02.508Z,19.87
2019-04-29T10:47:44.908Z,21.47
2019-04-29T10:50:24.800Z,17.30
2019-04-29T10:52:53.658Z,15.30
2019-04-29T10:55:25.640Z,16.40
2019-04-29T10:57:53.252Z,20.03
2019-04-29T11:00:32.709Z,17.07
2019-04-29T11:03:01.700Z,20.53
2019-04-29T11:05:34.127Z,19.00
2019-04-29T11:08:06.106Z,16.17
2019-04-29T11:10:34.976Z,16.57
2019-04-29T11:13:04.248Z,19.07
2019-04-29T11:15:34.845Z,18.93
2019-04-29T11:18:04.499Z,17.33
2019-04-29T11:20:34.144Z,17.33
2019-04-29T11:23:17.937Z,24.70
2019-04-29T11:25:51.364Z,18.33
2019-04-29T11:28:20.138Z,18.13
2019-04-29T11:30:49.707Z,18.23
2019-04-29T11:33:27.833Z,17.57
2019-04-29T11:35:59.281Z,18.80
2019-04-29T11:38:32.844Z,16.67
2019-04-29T11:40:59.408Z,17.17
2019-04-29T11:43:28.466Z,18.13
2019-04-29T11:45:57.402Z,16.37
2019-04-29T11:48:26.335Z,16.80
2019-04-29T11:50:59.614Z,18.37
2019-04-29T11:53:28.451Z,19.50
2019-04-29T11:55:58.750Z,16.07
2019-04-29T11:58:37.992Z,18.03
2019-04-29T12:01:08.861Z,18.97
2019-04-29T12:03:56.466Z,20.43
2019-04-29T12:06:23.638Z,19.40
2019-04-29T12:08:54.806Z,18.77
2019-04-29T12:11:23.616Z,30.90
2019-04-29T12:14:10.470Z,58.20
2019-04-29T12:16:43.948Z,56.30
2019-04-29T12:19:17.171Z,50.10
2019-04-29T12:21:46.469Z,37.73
2019-04-29T12:24:15.424Z,43.63
2019-04-29T12:26:44.630Z,44.67
2019-04-29T12:29:18.033Z,58.30
2019-04-29T12:31:55.230Z,61.30
2019-04-29T12:34:37.768Z,67.87
2019-04-29T12:37:17.239Z,62.80
2019-04-29T12:40:05.518Z,61.97
2019-04-29T12:42:51.238Z,53.90
2019-04-29T12:45:37.117Z,46.93
2019-04-29T12:48:06.547Z,43.47
2019-04-29T12:50:35.513Z,42.83
2019-04-29T12:53:04.705Z,43.07
2019-04-29T12:55:45.093Z,38.53
2019-04-29T12:58:08.702Z,33.77
2019-04-29T13:00:47.238Z,30.70
2019-04-29T13:03:13.769Z,29.60
2019-04-29T13:05:58.270Z,26.33
2019-04-29T13:08:28.060Z,30.10
2019-04-29T13:10:58.555Z,27.87
2019-04-29T13:13:27.395Z,23.50
2019-04-29T13:15:57.920Z,22.27
2019-04-29T13:18:33.980Z,20.50
2019-04-29T13:21:09.900Z,23.27
2019-04-29T13:23:36.222Z,21.90
2019-04-29T13:26:03.851Z,22.03
2019-04-29T13:28:34.599Z,20.87
2019-04-29T13:31:03.237Z,22.37
2019-04-29T13:33:32.119Z,23.53
2019-04-29T13:36:00.985Z,19.00
2019-04-29T13:38:29.891Z,22.67
2019-04-29T13:41:13.083Z,21.13
2019-04-29T13:43:35.029Z,23.90
2019-04-29T13:46:10.446Z,17.30
2019-04-29T13:48:55.310Z,18.20
2019-04-29T13:51:35.279Z,12.47
2019-04-29T13:53:55.387Z,10.70
2019-04-29T13:56:35.294Z,9.87
2019-04-29T13:58:53.843Z,7.33
2019-04-29T14:01:31.276Z,9.60
2019-04-29T14:03:59.585Z,8.13
2019-04-29T14:06:29.074Z,7.53
2019-04-29T14:08:59.947Z,9.40
2019-04-29T14:11:28.833Z,16.00
2019-04-29T14:13:57.994Z,19.90
2019-04-29T14:16:26.882Z,16.37
2019-04-29T14:18:59.977Z,14.27
2019-04-29T14:21:30.109Z,13.37
2019-04-29T14:23:59.474Z,17.13
2019-04-29T14:26:29.546Z,18.70
2019-04-29T14:28:58.588Z,15.90
2019-04-29T14:31:30.156Z,15.50
2019-04-29T14:34:00.307Z,13.20
2019-04-29T14:36:30.229Z,15.80
2019-04-29T14:38:59.094Z,12.80
2019-04-29T14:41:29.557Z,14.20
2019-04-29T14:44:17.854Z,15.13
2019-04-29T14:46:56.075Z,18.40
2019-04-29T14:49:26.533Z,12.73
2019-04-29T14:51:55.339Z,17.40
2019-04-29T14:54:24.213Z,14.83
2019-04-29T14:56:53.113Z,15.93
2019-04-29T14:59:22.322Z,14.43
2019-04-29T15:02:01.645Z,15.47
2019-04-29T15:04:38.169Z,15.70
2019-04-29T15:07:07.220Z,14.30
2019-04-29T15:09:46.484Z,10.77
2019-04-29T15:12:09.739Z,11.03
2019-04-29T15:14:54.609Z,10.23
2019-04-29T15:17:30.330Z,12.40
2019-04-29T15:20:04.460Z,15.30
2019-04-29T15:22:35.046Z,10.97
2019-04-29T15:25:04.813Z,8.83
2019-04-29T15:27:33.849Z,9.57
2019-04-29T15:30:02.702Z,10.63
2019-04-29T15:32:31.556Z,11.93
2019-04-29T15:35:00.470Z,12.30
2019-04-29T15:37:29.321Z,8.60
2019-04-29T15:39:58.543Z,9.13
2019-04-29T15:42:27.595Z,8.10
2019-04-29T15:44:57.030Z,8.87
2019-04-29T15:47:30.647Z,7.93
2019-04-29T15:50:00.838Z,11.47
2019-04-29T15:52:27.963Z,10.50
2019-04-29T15:54:56.851Z,9.73
2019-04-29T15:57:25.697Z,9.10
2019-04-29T15:59:59.913Z,9.33
2019-04-29T16:02:25.282Z,10.23
2019-04-29T16:04:55.699Z,10.57
2019-04-29T16:07:32.486Z,7.93
2019-04-29T16:10:20.741Z,8.53
2019-04-29T16:12:52.335Z,8.90
2019-04-29T16:15:21.344Z,11.43
2019-04-29T16:17:50.218Z,9.57
2019-04-29T16:20:19.144Z,8.37
2019-04-29T16:22:47.951Z,8.53
2019-04-29T16:25:16.826Z,9.00
2019-04-29T16:27:53.091Z,8.67
2019-04-29T16:30:18.929Z,8.17
2019-04-29T16:32:47.284Z,9.03
2019-04-29T16:35:17.858Z,11.37
2019-04-29T16:37:46.627Z,13.00
2019-04-29T16:40:15.807Z,9.90
2019-04-29T16:42:51.908Z,8.07
2019-04-29T16:45:22.319Z,11.40
2019-04-29T16:47:51.186Z,8.90
2019-04-29T16:50:20.187Z,10.50
2019-04-29T16:52:49.021Z,10.10
2019-04-29T16:55:17.911Z,9.33
2019-04-29T16:57:46.805Z,11.47
2019-04-29T17:00:17.430Z,9.97
2019-04-29T17:02:46.308Z,9.77
2019-04-29T17:05:15.418Z,9.70
2019-04-29T17:07:44.277Z,13.23
2019-04-29T17:10:21.874Z,15.10
2019-04-29T17:12:51.552Z,26.10
2019-04-29T17:15:25.019Z,43.47
2019-04-29T17:17:50.981Z,44.50
2019-04-29T17:20:19.937Z,42.60
2019-04-29T17:22:48.787Z,40.50
2019-04-29T17:25:17.817Z,33.70
2019-04-29T17:27:48.245Z,28.93
2019-04-29T17:30:27.413Z,29.70
2019-04-29T17:33:01.662Z,27.63
2019-04-29T17:35:32.731Z,32.63
2019-04-29T17:38:01.612Z,51.30
2019-04-29T19:08:42.065Z,24.73
2019-04-29T19:11:15.306Z,27.67
2019-04-29T19:13:48.414Z,30.03
2019-04-29T19:16:21.601Z,45.23
2019-04-29T19:18:47.470Z,42.23
2019-04-29T19:21:16.517Z,58.43
2019-04-29T19:23:45.912Z,49.80
2019-04-29T19:26:18.129Z,45.63
2019-04-29T19:28:45.305Z,45.23
2019-04-29T19:31:15.203Z,49.13
2019-04-29T19:33:46.210Z,34.63
2019-04-29T19:36:18.519Z,28.37
2019-04-29T19:38:47.427Z,30.80
2019-04-29T19:41:18.092Z,32.97
2019-04-29T19:43:48.400Z,32.83
2019-04-29T19:46:24.263Z,34.13
2019-04-29T19:48:48.107Z,36.20
2019-04-29T19:51:18.514Z,32.00
2019-04-29T19:53:49.560Z,28.63
2019-04-29T19:56:23.353Z,26.20
2019-04-29T19:58:49.171Z,30.77
2019-04-29T20:01:26.382Z,37.10
2019-04-29T20:03:51.147Z,33.50
2019-04-29T20:06:25.146Z,31.83
2019-04-29T20:08:56.979Z,33.23
2019-04-29T20:11:29.063Z,36.17
2019-04-29T20:14:03.763Z,38.27
2019-04-29T20:16:44.775Z,42.53
2019-04-29T20:19:28.900Z,69.97
2019-04-29T20:22:00.520Z,71.70
2019-04-29T20:24:28.708Z,66.23
2019-04-29T20:26:57.855Z,63.20
2019-04-29T20:29:33.511Z,50.60
2019-04-29T20:31:57.587Z,45.23
2019-04-29T20:34:29.192Z,39.73
2019-04-29T20:36:59.795Z,55.47
2019-04-29T20:39:28.862Z,43.87
2019-04-29T20:42:01.048Z,42.93
2019-04-29T20:44:28.723Z,53.37
2019-04-29T20:47:20.412Z,61.23
2019-04-29T20:49:30.876Z,64.73
2019-04-29T20:52:05.575Z,78.97
2019-04-29T20:54:36.182Z,82.93
2019-04-29T20:57:17.302Z,80.93
2019-04-29T20:59:42.023Z,68.63
2019-04-29T21:02:34.425Z,44.50
2019-04-29T21:05:19.639Z,47.70
2019-04-29T21:08:03.448Z,53.30
2019-04-29T21:11:00.326Z,53.40
2019-04-29T21:13:55.620Z,51.00
2019-04-29T21:16:29.782Z,55.97
2019-04-29T21:19:00.346Z,57.53
2019-04-29T21:21:30.779Z,51.80
2019-04-29T21:24:00.921Z,51.70
2019-04-29T21:26:30.712Z,53.03
2019-04-29T21:29:00.358Z,49.53
2019-04-29T21:31:30.139Z,59.00
2019-04-29T21:33:59.471Z,56.47
2019-04-29T21:36:45.384Z,43.87
2019-04-29T21:39:36.511Z,36.97
2019-04-29T21:42:06.493Z,32.90
2019-04-29T21:44:35.349Z,27.43
2019-04-29T21:47:08.032Z,29.03
2019-04-29T21:49:44.798Z,34.27
2019-04-29T21:52:05.891Z,40.27
2019-04-29T21:54:34.760Z,38.87
2019-04-29T21:57:05.681Z,34.83
2019-04-29T21:59:35.756Z,34.43
2019-04-29T22:02:12.971Z,30.27
2019-04-29T22:04:41.946Z,30.67
2019-04-29T22:07:10.839Z,29.10
2019-04-29T22:09:40.575Z,30.93
2019-04-29T22:12:20.150Z,23.90
2019-04-29T22:14:53.686Z,25.47
2019-04-29T22:17:26.228Z,22.83
2019-04-29T22:19:52.534Z,23.00
2019-04-29T22:22:21.436Z,27.57
2019-04-29T22:24:51.360Z,28.03
2019-04-29T22:27:20.383Z,26.13
2019-04-29T22:29:49.295Z,28.77
2019-04-29T22:32:19.282Z,27.00
2019-04-29T22:34:49.494Z,25.03
2019-04-29T22:37:20.733Z,27.87
2019-04-29T22:39:49.543Z,31.67
2019-04-29T22:42:29.397Z,32.37
2019-04-29T22:45:00.618Z,35.20
2019-04-29T22:47:28.747Z,31.47
2019-04-29T22:49:58.639Z,34.77
2019-04-29T22:52:29.858Z,33.93
2019-04-29T22:55:01.575Z,35.43
2019-04-29T22:57:31.625Z,39.07
2019-04-29T22:59:59.711Z,39.20
2019-04-29T23:02:28.619Z,39.87
2019-04-29T23:04:57.593Z,66.90
2019-04-29T23:07:26.436Z,61.47
2019-04-29T23:09:55.535Z,78.13
2019-04-29T23:12:25.942Z,52.10
2019-04-29T23:14:56.486Z,48.03
2019-04-29T23:17:25.476Z,36.93
2019-04-29T23:19:57.135Z,38.93
2019-04-29T23:22:45.394Z,38.87
2019-04-29T23:25:21.895Z,42.20
2019-04-29T23:27:52.713Z,37.43
2019-04-29T23:30:24.262Z,45.53
2019-04-29T23:32:53.171Z,55.60
2019-04-29T23:35:22.021Z,51.83
2019-04-29T23:37:50.880Z,37.27
2019-04-29T23:40:19.798Z,25.33
2019-04-29T23:42:49.285Z,29.20
2019-04-29T23:45:20.901Z,33.07
2019-04-29T23:47:50.345Z,33.17
2019-04-29T23:50:20.224Z,29.87
2019-04-29T23:52:51.891Z,32.43
2019-04-29T23:55:20.522Z,29.57
2019-04-29T23:58:02.893Z,31.20
